CheckWX is a tool to help pilots better visualize weather data.  It is not intended as a substitute for an official pre-flight weather briefing.

18:58:09 UTC

PAED METAR
Elmendorf AFB Airport
Anchorage, Alaska, USA
Current

1 hour ago

PAED 201756Z 00000KT 2 1/2SM FU FEW006 SCT200 13/03 A2980 RMK AO2A SLP087 T01300031 10130 20076 57006 $
Observed
Aug-20 @ 17:56 UTC
Visibility
2 1/2 SM
Flight Rules
IFR
Conditions
Smoke
Cloud Levels
  • Few at 600' AGL
  • Scattered at 20,000' AGL
Temperature
13°C / 55°F
Dewpoint
C / 37°F
Humidity
51%
Altimeter
29.8" Hg
Pressure
1009.12 hPa
Previous

2 hours ago

PAED 201656Z 00000KT 4SM FU FEW006 SCT200 11/03 A2981 RMK AO2A SLP090 T01080026 $
Observed
Aug-20 @ 16:56 UTC
Visibility
4 SM
Flight Rules
MVFR
Conditions
Smoke
Cloud Levels
  • Few at 600' AGL
  • Scattered at 20,000' AGL
Temperature
11°C / 52°F
Dewpoint
C / 37°F
Humidity
58%
Altimeter
29.81" Hg
Pressure
1009.52 hPa
Previous

3 hours ago

PAED 201556Z 05003KT 5SM FU FEW007 SCT200 09/02 A2982 RMK AO2A SLP094 T00870020 $
Observed
Aug-20 @ 15:56 UTC
Wind
  • 050° at 3 KTS
Visibility
5 SM
Flight Rules
MVFR
Conditions
Smoke
Cloud Levels
  • Few at 700' AGL
  • Scattered at 20,000' AGL
Temperature
C / 48°F
Dewpoint
C / 36°F
Humidity
62%
Altimeter
29.82" Hg
Pressure
1009.82 hPa